createdAt,value
2023-01-18T00:02:37.451Z,6.5
2023-01-18T00:05:39.447Z,5.9
2023-01-18T00:08:41.358Z,7.5
2023-01-18T00:11:43.318Z,6.4
2023-01-18T00:14:45.314Z,6.7
2023-01-18T00:17:47.275Z,6.1
2023-01-18T00:20:49.186Z,6.2
2023-01-18T00:23:51.154Z,7.1
2023-01-18T00:26:53.109Z,6.3
2023-01-18T00:29:55.072Z,8.6
2023-01-18T00:32:57.458Z,6
2023-01-18T00:35:58.989Z,6.9
2023-01-18T00:39:00.945Z,4.8
2023-01-18T00:42:02.918Z,8.2
2023-01-18T00:45:04.939Z,7.2
2023-01-18T00:48:06.837Z,6.2
2023-01-18T00:51:08.862Z,8.3
2023-01-18T00:54:10.791Z,8.4
2023-01-18T00:57:12.732Z,7
2023-01-18T01:00:14.739Z,5.1
2023-01-18T01:03:16.664Z,5.4
2023-01-18T01:06:18.610Z,5.5
2023-01-18T01:09:20.613Z,5.2
2023-01-18T01:12:22.564Z,6.1
2023-01-18T01:15:24.524Z,8.4
2023-01-18T01:18:26.452Z,8.2
2023-01-18T01:21:28.410Z,6.1
2023-01-18T01:24:30.370Z,8.2
2023-01-18T01:27:32.337Z,11.5
2023-01-18T01:30:34.339Z,6.2
2023-01-18T01:33:36.294Z,5.5
2023-01-18T01:36:38.244Z,5.8
2023-01-18T01:39:40.154Z,5.5
2023-01-18T01:42:42.215Z,5.3
2023-01-18T01:45:44.167Z,7.9
2023-01-18T01:48:46.072Z,6.2
2023-01-18T01:51:48.032Z,7.3
2023-01-18T01:54:49.976Z,6.7
2023-01-18T01:57:51.940Z,7.1
2023-01-18T02:00:53.960Z,5.5
2023-01-18T02:03:55.833Z,6.3
2023-01-18T02:06:57.834Z,5.7
2023-01-18T02:09:59.740Z,7.1
2023-01-18T02:13:01.734Z,6.2
2023-01-18T02:16:03.685Z,9.7
2023-01-18T02:19:05.665Z,7.9
2023-01-18T02:22:07.675Z,6.1
2023-01-18T02:25:09.580Z,8.3
2023-01-18T02:28:11.567Z,6.7
2023-01-18T02:31:13.561Z,8.9
2023-01-18T02:34:15.484Z,8.7
2023-01-18T02:37:17.433Z,8.3
2023-01-18T02:40:19.406Z,6
2023-01-18T02:43:21.338Z,8.7
2023-01-18T02:46:23.366Z,5.8
2023-01-18T02:49:25.240Z,9.1
2023-01-18T02:52:27.420Z,4.9
2023-01-18T02:55:29.186Z,9.7
2023-01-18T02:58:31.153Z,9.5
2023-01-18T03:01:33.244Z,7.4
2023-01-18T03:04:35.079Z,7.3
2023-01-18T03:07:37.018Z,8.8
2023-01-18T03:10:39.027Z,10.7
2023-01-18T03:13:40.972Z,10.4
2023-01-18T03:16:42.891Z,7.7
2023-01-18T03:19:44.855Z,5.6
2023-01-18T03:22:46.859Z,6.8
2023-01-18T03:25:48.813Z,8.8
2023-01-18T03:28:50.743Z,5.3
2023-01-18T03:31:52.708Z,6.9
2023-01-18T03:34:54.665Z,7.5
2023-01-18T03:37:56.684Z,7.4
2023-01-18T03:40:58.646Z,8.1
2023-01-18T03:44:00.618Z,8.5
2023-01-18T03:47:02.591Z,6.1
2023-01-18T03:50:04.552Z,9.4
2023-01-18T03:53:06.500Z,10.7
2023-01-18T03:56:08.449Z,7.9
2023-01-18T03:59:10.433Z,5.8
2023-01-18T04:02:12.378Z,6.5
2023-01-18T04:05:14.379Z,5.8
2023-01-18T04:08:16.317Z,7.2
2023-01-18T04:11:18.270Z,9.2
2023-01-18T04:14:20.219Z,6
2023-01-18T04:17:22.232Z,5.5
2023-01-18T04:20:24.180Z,7.4
2023-01-18T04:23:26.114Z,8.5
2023-01-18T04:26:28.064Z,7.3
2023-01-18T04:29:30.045Z,7.9
2023-01-18T04:32:32.012Z,6.5
2023-01-18T04:35:33.972Z,10.7
2023-01-18T04:38:35.949Z,7.6
2023-01-18T04:41:37.903Z,6.5
2023-01-18T04:44:39.869Z,8.1
2023-01-18T04:47:41.829Z,10
2023-01-18T04:50:43.806Z,10.1
2023-01-18T04:53:45.769Z,7.8
2023-01-18T04:56:47.732Z,9.8
2023-01-18T04:59:49.800Z,7.6
2023-01-18T05:02:51.668Z,5.8
2023-01-18T05:05:53.635Z,8.9
2023-01-18T05:08:55.644Z,5.8
2023-01-18T05:11:57.619Z,6.3
2023-01-18T05:14:59.574Z,7.2
2023-01-18T05:18:01.498Z,3.2
2023-01-18T05:21:03.480Z,5.7
2023-01-18T05:24:05.435Z,6.8
2023-01-18T05:27:07.428Z,7
2023-01-18T05:30:09.385Z,5.9
2023-01-18T05:33:11.344Z,4.5
2023-01-18T05:36:13.325Z,7.5
2023-01-18T05:39:15.297Z,5.3
2023-01-18T05:42:17.261Z,8.5
2023-01-18T05:45:19.244Z,6.5
2023-01-18T05:48:21.212Z,4.7
2023-01-18T05:51:23.146Z,6.4
2023-01-18T05:54:25.135Z,4.3
2023-01-18T05:57:27.064Z,6.7
2023-01-18T06:00:29.010Z,5
2023-01-18T06:03:30.990Z,3.9
2023-01-18T06:06:34.633Z,5.5
2023-01-18T06:09:36.839Z,6.3
2023-01-18T06:12:37.126Z,6.1
2023-01-18T06:15:38.940Z,5
2023-01-18T06:18:40.922Z,6.5
2023-01-18T06:21:42.839Z,4.7
2023-01-18T06:24:44.770Z,3.4
2023-01-18T06:27:46.755Z,5.8
2023-01-18T06:30:48.780Z,4.5
2023-01-18T06:33:50.691Z,6.5
2023-01-18T06:36:52.646Z,14.1
2023-01-18T06:39:54.584Z,5.9
2023-01-18T06:42:57.029Z,5.7
2023-01-18T06:45:58.596Z,6
2023-01-18T06:49:00.494Z,6.7
2023-01-18T06:52:02.425Z,2.8
2023-01-18T06:55:04.392Z,7.9
2023-01-18T06:58:06.494Z,6
2023-01-18T07:01:08.550Z,7.9
2023-01-18T07:04:10.434Z,3.9
2023-01-18T07:07:12.358Z,7
2023-01-18T07:10:16.154Z,8.7
2023-01-18T07:13:16.371Z,5.7
2023-01-18T07:16:18.346Z,4.4
2023-01-18T07:19:20.251Z,4.9
2023-01-18T07:22:22.216Z,7.7
2023-01-18T07:25:24.139Z,5.4
2023-01-18T07:28:26.104Z,6.6
2023-01-18T07:31:28.140Z,6.7
2023-01-18T07:34:30.036Z,4.2
2023-01-18T07:37:31.973Z,4
2023-01-18T07:40:33.934Z,9
2023-01-18T07:43:35.901Z,9.1
2023-01-18T07:46:37.873Z,6.6
2023-01-18T07:49:39.824Z,6.7
2023-01-18T07:52:41.810Z,9
2023-01-18T07:55:43.763Z,6.9
2023-01-18T07:58:45.752Z,5.7
2023-01-18T08:01:47.805Z,6.8
2023-01-18T08:04:49.642Z,9.1
2023-01-18T08:07:51.615Z,9
2023-01-18T08:10:53.611Z,12.9
2023-01-18T08:13:55.556Z,7.2
2023-01-18T08:16:57.519Z,8.5
2023-01-18T08:19:59.448Z,15.7
2023-01-18T08:23:01.579Z,4.8
2023-01-18T08:26:03.390Z,9.2
2023-01-18T08:29:05.357Z,8.4
2023-01-18T08:32:07.305Z,8.7
2023-01-18T08:35:09.507Z,9.2
2023-01-18T08:38:11.240Z,7.4
2023-01-18T08:41:13.186Z,8.7
2023-01-18T08:44:15.166Z,7.8
2023-01-18T08:47:17.124Z,8.1
2023-01-18T08:50:19.092Z,7.5
2023-01-18T08:53:21.102Z,10.6
2023-01-18T08:56:26.263Z,9
2023-01-18T08:59:28.328Z,8.5
2023-01-18T09:02:30.253Z,10.8
2023-01-18T09:05:32.174Z,10.9
2023-01-18T09:08:34.133Z,10.3
2023-01-18T09:11:36.106Z,14.8
2023-01-18T09:14:38.060Z,7.1
2023-01-18T09:17:40.028Z,11.6
2023-01-18T09:20:41.999Z,7.2
2023-01-18T09:23:43.992Z,15.4
2023-01-18T09:26:45.966Z,10.2
2023-01-18T09:29:47.905Z,11.7
2023-01-18T09:32:49.903Z,7.4
2023-01-18T09:35:51.870Z,8.4
2023-01-18T09:38:53.845Z,8.9
2023-01-18T09:41:55.809Z,6.9
2023-01-18T09:44:57.729Z,12.2
2023-01-18T09:47:59.694Z,11.9
2023-01-18T09:51:01.691Z,9.3
2023-01-18T09:54:03.652Z,8
2023-01-18T09:57:05.617Z,8.7
2023-01-18T10:00:07.559Z,7.5
2023-01-18T10:03:09.695Z,6.9
2023-01-18T10:06:11.492Z,6.8
2023-01-18T10:09:13.457Z,6.8
2023-01-18T10:12:15.422Z,7.3
2023-01-18T10:15:17.457Z,5.5
2023-01-18T10:18:19.342Z,7.2
2023-01-18T10:21:21.416Z,9.8
2023-01-18T10:24:23.399Z,6.2
2023-01-18T10:27:25.307Z,7.1
2023-01-18T10:30:27.238Z,6.4
2023-01-18T10:33:29.204Z,6.9
2023-01-18T10:36:31.221Z,5.4
2023-01-18T10:39:33.173Z,4.4
2023-01-18T10:42:35.164Z,4.5
2023-01-18T10:45:37.180Z,7.5
2023-01-18T10:48:39.064Z,5.1
2023-01-18T10:51:41.129Z,7.7
2023-01-18T10:54:43.071Z,6.1
2023-01-18T10:57:44.993Z,6.7
2023-01-18T11:00:47.088Z,5.1
2023-01-18T11:03:51.380Z,6.3
2023-01-18T11:06:51.130Z,6.5
2023-01-18T11:09:55.728Z,4.3
2023-01-18T11:12:55.384Z,5.6
2023-01-18T11:15:57.303Z,6.1
2023-01-18T11:18:59.286Z,5.6
2023-01-18T11:22:01.250Z,5.6
2023-01-18T11:25:03.228Z,5.1
2023-01-18T11:28:05.187Z,6.2
2023-01-18T11:31:07.149Z,3.9
2023-01-18T11:34:09.090Z,3.1
2023-01-18T11:37:11.061Z,5.4
2023-01-18T11:40:13.044Z,7.5
2023-01-18T11:43:15.006Z,7
2023-01-18T11:46:16.961Z,4.4
2023-01-18T11:49:19.033Z,7.7
2023-01-18T11:52:20.860Z,5
2023-01-18T11:55:22.841Z,4.9
2023-01-18T11:58:24.830Z,3.8
2023-01-18T12:01:26.760Z,5.3
2023-01-18T12:04:28.701Z,4
2023-01-18T12:07:30.688Z,6.7
2023-01-18T12:10:32.631Z,4.8
2023-01-18T12:13:34.600Z,5.5
2023-01-18T12:16:36.659Z,5.1
2023-01-18T12:19:38.535Z,5.6
2023-01-18T12:22:40.536Z,5
2023-01-18T12:25:42.490Z,5.6
2023-01-18T12:28:44.453Z,5.1
2023-01-18T12:31:46.459Z,4.6
2023-01-18T12:34:48.405Z,5.2
2023-01-18T12:37:50.389Z,5
2023-01-18T12:40:52.379Z,3.5
2023-01-18T12:43:55.702Z,3.8
2023-01-18T12:46:56.306Z,4
2023-01-18T12:49:58.242Z,5.3
2023-01-18T12:53:00.232Z,4.3
2023-01-18T12:56:03.989Z,5.3
2023-01-18T12:59:04.398Z,4.1
2023-01-18T13:02:06.387Z,6
2023-01-18T13:05:08.293Z,4.3
2023-01-18T13:08:10.374Z,4
2023-01-18T13:11:12.214Z,7.4
2023-01-18T13:14:14.185Z,10.2
2023-01-18T13:17:16.134Z,6.8
2023-01-18T13:20:18.117Z,9.3
2023-01-18T13:23:20.043Z,12.2
2023-01-18T13:26:22.015Z,12.6
2023-01-18T13:29:24.035Z,12.6
2023-01-18T13:32:25.945Z,11.9
2023-01-18T13:35:27.910Z,11.9
2023-01-18T13:38:40.432Z,10.8
2023-01-18T13:41:31.861Z,13.3
2023-01-18T13:44:33.836Z,10.9
2023-01-18T13:47:35.815Z,14.4
2023-01-18T13:50:37.734Z,11.3
2023-01-18T13:53:39.702Z,12.4
2023-01-18T13:56:41.657Z,12.9
2023-01-18T13:59:43.620Z,10.1
2023-01-18T14:02:45.590Z,11.7
2023-01-18T14:05:47.538Z,9.5
2023-01-18T14:08:49.495Z,10
2023-01-18T14:11:51.447Z,10.3
2023-01-18T14:14:53.473Z,10.5
2023-01-18T14:17:58.757Z,11.5
2023-01-18T14:20:57.483Z,11.4
2023-01-18T14:23:59.378Z,10.4
2023-01-18T14:27:01.301Z,7.8
2023-01-18T14:30:03.308Z,6.6
2023-01-18T14:33:05.239Z,8.3
2023-01-18T14:36:07.266Z,9.5
2023-01-18T14:39:09.179Z,10.9
2023-01-18T14:42:11.120Z,8.4
2023-01-18T14:45:13.096Z,10.3
2023-01-18T14:48:15.092Z,9.3
2023-01-18T14:51:17.051Z,9.5
2023-01-18T14:54:18.995Z,12.5
2023-01-18T14:57:20.980Z,11
2023-01-18T15:00:22.916Z,10.3
2023-01-18T15:03:24.914Z,8.7
2023-01-18T15:06:26.920Z,12.4
2023-01-18T15:09:28.819Z,12
2023-01-18T15:12:30.775Z,11.9
2023-01-18T15:15:32.731Z,10.7
2023-01-18T15:18:34.674Z,11.7
2023-01-18T15:21:36.677Z,13
2023-01-18T15:24:38.650Z,11.1
2023-01-18T15:27:42.238Z,9.9
2023-01-18T15:30:42.575Z,14.1
2023-01-18T15:33:44.510Z,12.3
2023-01-18T15:36:46.544Z,12.4
2023-01-18T15:39:48.529Z,10.6
2023-01-18T15:42:50.443Z,10.2
2023-01-18T15:45:52.465Z,12.2
2023-01-18T15:48:54.454Z,14.7
2023-01-18T15:51:56.432Z,14.4
2023-01-18T15:54:58.345Z,11.9
2023-01-18T15:58:00.811Z,16.1
2023-01-18T16:01:02.350Z,13.8
2023-01-18T16:04:04.204Z,16.1
2023-01-18T16:07:06.160Z,12.8
2023-01-18T16:10:08.143Z,15.6
2023-01-18T16:13:10.278Z,14.8
2023-01-18T16:16:12.079Z,20.3
2023-01-18T16:19:14.009Z,13.5
2023-01-18T16:22:16.048Z,17
2023-01-18T16:25:18.073Z,16.3
2023-01-18T16:28:19.947Z,18
2023-01-18T16:31:22.868Z,16.7
2023-01-18T16:34:24.076Z,15.1
2023-01-18T16:37:26.043Z,13.7
2023-01-18T16:40:27.985Z,15.4
2023-01-18T16:43:29.988Z,16.1
2023-01-18T16:46:31.939Z,14.9
2023-01-18T16:49:33.895Z,14.8
2023-01-18T16:52:35.865Z,19.2
2023-01-18T16:55:37.833Z,15.7
2023-01-18T16:58:39.847Z,14.1
2023-01-18T17:01:41.969Z,16.4
2023-01-18T17:04:43.890Z,19.7
2023-01-18T17:07:45.833Z,16
2023-01-18T17:10:47.940Z,15.6
2023-01-18T17:13:49.862Z,14.1
2023-01-18T17:16:51.850Z,15.1
2023-01-18T17:19:53.872Z,15.2
2023-01-18T17:22:55.819Z,17.6
2023-01-18T17:25:57.800Z,18.4
2023-01-18T17:28:59.818Z,16.5
2023-01-18T17:32:01.694Z,18.2
2023-01-18T17:35:03.631Z,14.1
2023-01-18T17:38:05.736Z,16.7
2023-01-18T17:41:11.298Z,15.3
2023-01-18T17:44:09.550Z,15.5
2023-01-18T17:47:11.496Z,14.1
2023-01-18T17:50:13.477Z,13.6
2023-01-18T17:53:15.400Z,13.9
2023-01-18T17:56:20.648Z,15.1
2023-01-18T17:59:22.753Z,15.8
2023-01-18T18:02:24.756Z,12.8
2023-01-18T18:05:26.595Z,12.7
2023-01-18T18:08:28.617Z,13.3
2023-01-18T18:11:30.649Z,10.8
2023-01-18T18:14:35.393Z,10.5
2023-01-18T18:17:37.349Z,13.5
2023-01-18T18:20:39.343Z,13.6
2023-01-18T18:23:41.501Z,13.8
2023-01-18T18:26:43.470Z,16.1
2023-01-18T18:29:45.445Z,13.2
2023-01-18T18:32:47.402Z,13.6
2023-01-18T18:35:49.379Z,13.1
2023-01-18T18:38:51.345Z,14.9
2023-01-18T18:41:53.310Z,17.6
2023-01-18T18:44:55.306Z,14.6
2023-01-18T18:47:57.236Z,15.6
2023-01-18T18:50:59.202Z,16.4
2023-01-18T18:54:01.166Z,15.4
2023-01-18T18:57:03.124Z,17.6
2023-01-18T19:00:05.120Z,14
2023-01-18T19:03:07.467Z,13.1
2023-01-18T19:06:09.003Z,18.4
2023-01-18T19:09:10.981Z,16.7
2023-01-18T19:12:12.960Z,15
2023-01-18T19:15:14.925Z,14.8
2023-01-18T19:18:16.877Z,16.2
2023-01-18T19:21:18.862Z,13.5
2023-01-18T19:24:20.786Z,16.9
2023-01-18T19:27:22.740Z,14
2023-01-18T19:30:24.729Z,14.3
2023-01-18T19:33:26.661Z,17.4
2023-01-18T19:36:28.630Z,15.7
2023-01-18T19:39:30.569Z,14.5
2023-01-18T19:42:32.535Z,19.7
2023-01-18T19:45:34.503Z,14.8
2023-01-18T19:48:36.491Z,18
2023-01-18T19:51:38.471Z,14.2
2023-01-18T19:54:40.669Z,15.7
2023-01-18T19:57:42.385Z,16.9
2023-01-18T20:00:44.380Z,12.9
2023-01-18T20:03:46.342Z,16.4
2023-01-18T20:06:48.313Z,14.5
2023-01-18T20:09:50.297Z,16.6
2023-01-18T20:12:52.242Z,16.5
2023-01-18T20:15:54.193Z,16.5
2023-01-18T20:18:56.232Z,17.9
2023-01-18T20:21:58.173Z,12.9
2023-01-18T20:25:00.093Z,16.5
2023-01-18T20:28:02.086Z,20
2023-01-18T20:31:04.012Z,14.6
2023-01-18T20:34:05.993Z,12.8
2023-01-18T20:37:08.063Z,14.2
2023-01-18T20:40:09.890Z,13.8
2023-01-18T20:43:11.847Z,16.4
2023-01-18T20:46:13.870Z,17
2023-01-18T20:49:15.826Z,15.1
2023-01-18T20:52:17.737Z,12.2
2023-01-18T20:55:19.719Z,13.9
2023-01-18T20:58:21.717Z,15.3
2023-01-18T21:01:23.793Z,13.1
2023-01-18T21:04:25.637Z,13.4
2023-01-18T21:07:27.611Z,16
2023-01-18T21:10:29.550Z,12.5
2023-01-18T21:13:31.533Z,17.8
2023-01-18T21:16:33.540Z,14.8
2023-01-18T21:19:35.474Z,14.8
2023-01-18T21:22:37.448Z,13.5
2023-01-18T21:25:39.405Z,15.9
2023-01-18T21:28:41.377Z,15.6
2023-01-18T21:31:43.376Z,15.6
2023-01-18T21:34:45.244Z,18.6
2023-01-18T21:37:47.210Z,16.7
2023-01-18T21:40:49.213Z,15.7
2023-01-18T21:43:51.143Z,16.9
2023-01-18T21:46:53.153Z,16.5
2023-01-18T21:50:16.335Z,16
2023-01-18T21:52:57.099Z,19.7
2023-01-18T21:55:59.042Z,17.2
2023-01-18T21:59:01.048Z,20.3
2023-01-18T22:02:03.135Z,20
2023-01-18T22:05:04.971Z,15.1
2023-01-18T22:08:06.908Z,19.3
2023-01-18T22:11:08.862Z,17.4
2023-01-18T22:14:10.818Z,18.2
2023-01-18T22:17:12.791Z,17.5
2023-01-18T22:20:14.760Z,15.5
2023-01-18T22:23:16.739Z,16.5
2023-01-18T22:26:18.671Z,16.6
2023-01-18T22:29:20.657Z,15.7
2023-01-18T22:32:22.609Z,19.3
2023-01-18T22:35:24.557Z,17
2023-01-18T22:38:26.533Z,19.3
2023-01-18T22:41:28.535Z,17.7
2023-01-18T22:44:30.463Z,16.3
2023-01-18T22:47:32.463Z,16.6
2023-01-18T22:50:34.411Z,18.7
2023-01-18T22:53:36.361Z,19.2
2023-01-18T22:56:38.339Z,16.1
2023-01-18T22:59:40.293Z,20.3
2023-01-18T23:02:42.264Z,19.8
2023-01-18T23:05:44.204Z,18.1
2023-01-18T23:08:46.190Z,15.9
2023-01-18T23:11:48.139Z,17.6
2023-01-18T23:14:50.093Z,16.5
2023-01-18T23:17:52.073Z,16.5
2023-01-18T23:20:54.040Z,16.7
2023-01-18T23:23:56.012Z,18
2023-01-18T23:26:58.024Z,17.1
2023-01-18T23:30:00.051Z,18
2023-01-18T23:33:01.946Z,18.5
2023-01-18T23:36:03.915Z,15.9
2023-01-18T23:39:05.840Z,18.9
2023-01-18T23:42:07.843Z,15.9
2023-01-18T23:45:09.784Z,20.1
2023-01-18T23:48:11.735Z,16.6
2023-01-18T23:51:13.690Z,16.6
2023-01-18T23:54:15.699Z,20.1
2023-01-18T23:57:17.635Z,16.2
